JBU137 KJFK-MDST
Flight info
| Callsign | JBU137 |
|---|---|
| Flight time | N/A |
| Altitude | 34000 |
| Route | SHIPP Y490 BEHHR/M079F340 Y490 ROLLE DCT ATUGI L454 LUCTI/N0465F340 L454 MNDEZ DCT SEKAR SEKAR2P |
| Aircraft | A320/M-SDE3FGHIRWY/LB1 |
Departure
| Time | 2026-05-01 12:52 |
|---|---|
| Airport | John F. Kennedy International Airport (KJFK) |
Arrival
| Time | N/A |
|---|---|
| Airport | Cibao International Airport (MDST) |
| Time | Latitude | Longitude | Altitude | Speed | Heading |
|---|---|---|---|---|---|
| 2026-05-01 12:19 | 40.64638 | -73.77503 | 26 ft | 0 kts | 215° |
| 2026-05-01 12:37 | 40.64650 | -73.77492 | 25 ft | 4 kts | 213° |
| 2026-05-01 12:37 | 40.64673 | -73.77474 | 25 ft | 4 kts | 208° |
| 2026-05-01 12:38 | 40.64698 | -73.77459 | 24 ft | 4 kts | 201° |
| 2026-05-01 12:38 | 40.64723 | -73.77448 | 22 ft | 4 kts | 190° |
| 2026-05-01 12:38 | 40.64749 | -73.77447 | 24 ft | 4 kts | 157° |
| 2026-05-01 12:38 | 40.64760 | -73.77456 | 25 ft | 0 kts | 121° |
| 2026-05-01 12:43 | 40.64757 | -73.77449 | 24 ft | 2 kts | 121° |
| 2026-05-01 12:43 | 40.64748 | -73.77429 | 23 ft | 3 kts | 120° |
| 2026-05-01 12:44 | 40.64742 | -73.77393 | 23 ft | 4 kts | 82° |
| 2026-05-01 12:44 | 40.64765 | -73.77368 | 23 ft | 5 kts | 31° |
| 2026-05-01 12:44 | 40.64743 | -73.77226 | 22 ft | 12 kts | 121° |
| 2026-05-01 12:45 | 40.64602 | -73.77089 | 22 ft | 15 kts | 178° |
| 2026-05-01 12:45 | 40.64493 | -73.77090 | 21 ft | 16 kts | 182° |
| 2026-05-01 12:45 | 40.64387 | -73.77139 | 22 ft | 17 kts | 210° |
| 2026-05-01 12:46 | 40.64282 | -73.77221 | 23 ft | 18 kts | 211° |
| 2026-05-01 12:46 | 40.64175 | -73.77305 | 25 ft | 18 kts | 210° |
| 2026-05-01 12:46 | 40.64056 | -73.77398 | 22 ft | 21 kts | 211° |
| 2026-05-01 12:46 | 40.63923 | -73.77501 | 21 ft | 23 kts | 211° |
| 2026-05-01 12:47 | 40.63776 | -73.77618 | 19 ft | 25 kts | 211° |
| 2026-05-01 12:47 | 40.63621 | -73.77739 | 20 ft | 27 kts | 210° |
| 2026-05-01 12:47 | 40.63491 | -73.77840 | 23 ft | 18 kts | 210° |
| 2026-05-01 12:47 | 40.63401 | -73.77913 | 26 ft | 13 kts | 212° |
| 2026-05-01 12:48 | 40.63351 | -73.77899 | 25 ft | 8 kts | 126° |
| 2026-05-01 12:48 | 40.63318 | -73.77829 | 27 ft | 9 kts | 121° |
| 2026-05-01 12:48 | 40.63285 | -73.77758 | 27 ft | 10 kts | 121° |
| 2026-05-01 12:48 | 40.63238 | -73.77654 | 28 ft | 15 kts | 120° |
| 2026-05-01 12:49 | 40.63186 | -73.77537 | 30 ft | 15 kts | 121° |
| 2026-05-01 12:49 | 40.63131 | -73.77415 | 28 ft | 17 kts | 120° |
| 2026-05-01 12:49 | 40.63068 | -73.77273 | 27 ft | 19 kts | 121° |
| 2026-05-01 12:49 | 40.63002 | -73.77131 | 26 ft | 13 kts | 121° |
| 2026-05-01 12:50 | 40.62954 | -73.77083 | 23 ft | 9 kts | 196° |
| 2026-05-01 12:50 | 40.62901 | -73.77122 | 24 ft | 9 kts | 210° |
| 2026-05-01 12:50 | 40.62843 | -73.77167 | 24 ft | 10 kts | 210° |
| 2026-05-01 12:50 | 40.62831 | -73.77247 | 24 ft | 11 kts | 298° |
| 2026-05-01 12:51 | 40.62883 | -73.77364 | 27 ft | 32 kts | 301° |
| 2026-05-01 12:51 | 40.63105 | -73.77849 | 28 ft | 91 kts | 301° |
| 2026-05-01 12:51 | 40.64057 | -73.79958 | 44 ft | 170 kts | 301° |
| 2026-05-01 12:52 | 40.64578 | -73.81329 | 645 ft | 169 kts | 286° |
| 2026-05-01 12:52 | 40.64254 | -73.84549 | 1404 ft | 207 kts | 237° |
| 2026-05-01 12:52 | 40.63084 | -73.85787 | 1823 ft | 224 kts | 212° |
| 2026-05-01 12:53 | 40.60373 | -73.87907 | 3161 ft | 229 kts | 200° |
| 2026-05-01 12:53 | 40.58785 | -73.88208 | 3749 ft | 240 kts | 175° |
| 2026-05-01 12:53 | 40.57115 | -73.87558 | 4063 ft | 263 kts | 157° |
| 2026-05-01 12:54 | 40.55389 | -73.86565 | 4618 ft | 276 kts | 156° |
| 2026-05-01 12:54 | 40.51622 | -73.85377 | 6100 ft | 283 kts | 176° |
| 2026-05-01 12:54 | 40.49703 | -73.84768 | 6819 ft | 290 kts | 156° |
| 2026-05-01 12:55 | 40.47088 | -73.80788 | 8102 ft | 301 kts | 107° |
| 2026-05-01 12:55 | 40.46436 | -73.78153 | 8760 ft | 306 kts | 106° |
| 2026-05-01 12:55 | 40.45775 | -73.75464 | 9409 ft | 312 kts | 106° |
| 2026-05-01 12:56 | 40.45101 | -73.72730 | 10028 ft | 318 kts | 106° |
| 2026-05-01 12:56 | 40.44399 | -73.69895 | 10278 ft | 337 kts | 107° |
| 2026-05-01 12:56 | 40.43650 | -73.66883 | 10421 ft | 358 kts | 107° |
| 2026-05-01 12:56 | 40.42851 | -73.63692 | 10543 ft | 378 kts | 108° |
| 2026-05-01 12:57 | 40.42004 | -73.60349 | 10772 ft | 392 kts | 108° |
| 2026-05-01 12:57 | 40.40247 | -73.53458 | 11792 ft | 402 kts | 109° |
| 2026-05-01 12:57 | 40.39357 | -73.49958 | 12320 ft | 406 kts | 109° |
| 2026-05-01 12:58 | 40.38472 | -73.46464 | 12858 ft | 410 kts | 109° |
| 2026-05-01 12:58 | 40.37567 | -73.42896 | 13404 ft | 414 kts | 110° |
| 2026-05-01 12:58 | 40.36652 | -73.39290 | 13931 ft | 419 kts | 110° |
| 2026-05-01 12:59 | 40.34791 | -73.31980 | 14867 ft | 427 kts | 110° |
| 2026-05-01 12:59 | 40.33845 | -73.28276 | 15325 ft | 431 kts | 110° |
| 2026-05-01 12:59 | 40.31205 | -73.21216 | 16142 ft | 435 kts | 127° |
| 2026-05-01 13:00 | 40.27859 | -73.14528 | 17114 ft | 442 kts | 127° |
| 2026-05-01 13:00 | 40.26166 | -73.11145 | 17625 ft | 446 kts | 127° |
| 2026-05-01 13:01 | 40.22743 | -73.04288 | 18573 ft | 454 kts | 127° |
| 2026-05-01 13:01 | 40.21014 | -73.00819 | 19021 ft | 456 kts | 127° |
| 2026-05-01 13:01 | 40.17523 | -72.93832 | 19915 ft | 461 kts | 128° |
| 2026-05-01 13:02 | 40.15761 | -72.90323 | 20364 ft | 463 kts | 128° |
| 2026-05-01 13:07 | 39.79834 | -72.11191 | 27590 ft | 491 kts | 125° |
| 2026-05-01 13:07 | 39.78121 | -72.07347 | 27972 ft | 491 kts | 125° |
| 2026-05-01 13:07 | 39.76435 | -72.03559 | 28358 ft | 490 kts | 125° |
| 2026-05-01 13:08 | 39.74553 | -71.99892 | 28732 ft | 484 kts | 134° |
| 2026-05-01 13:08 | 39.72347 | -71.96646 | 29114 ft | 477 kts | 142° |
| 2026-05-01 13:08 | 39.69929 | -71.93725 | 29450 ft | 475 kts | 144° |
| 2026-05-01 13:08 | 39.67492 | -71.90811 | 29711 ft | 477 kts | 144° |
| 2026-05-01 13:09 | 39.65048 | -71.87886 | 30069 ft | 478 kts | 144° |
| 2026-05-01 13:09 | 39.62608 | -71.84960 | 30382 ft | 478 kts | 144° |
| 2026-05-01 13:09 | 39.60165 | -71.82027 | 30662 ft | 479 kts | 144° |
| 2026-05-01 13:09 | 39.57713 | -71.79087 | 30936 ft | 480 kts | 144° |
| 2026-05-01 13:10 | 39.55252 | -71.76142 | 31212 ft | 481 kts | 144° |
| 2026-05-01 13:10 | 39.52725 | -71.73316 | 31480 ft | 476 kts | 151° |
| 2026-05-01 13:10 | 39.49984 | -71.70974 | 31747 ft | 468 kts | 160° |
| 2026-05-01 13:10 | 39.47081 | -71.69161 | 32015 ft | 459 kts | 168° |
| 2026-05-01 13:11 | 39.44090 | -71.67781 | 32271 ft | 456 kts | 171° |
| 2026-05-01 13:11 | 39.41078 | -71.66439 | 32441 ft | 459 kts | 172° |
| 2026-05-01 13:11 | 39.38046 | -71.65089 | 32674 ft | 461 kts | 172° |
| 2026-05-01 13:11 | 39.35006 | -71.63731 | 32950 ft | 463 kts | 172° |
| 2026-05-01 13:12 | 39.32003 | -71.62385 | 33229 ft | 463 kts | 172° |
| 2026-05-01 13:12 | 39.28950 | -71.61013 | 33506 ft | 464 kts | 172° |
| 2026-05-01 13:12 | 39.25900 | -71.59640 | 33776 ft | 465 kts | 172° |
| 2026-05-01 13:12 | 39.22836 | -71.58277 | 33959 ft | 464 kts | 174° |
| 2026-05-01 13:13 | 39.19733 | -71.57258 | 34005 ft | 458 kts | 182° |
| 2026-05-01 13:13 | 39.13446 | -71.56577 | 33997 ft | 456 kts | 190° |
| 2026-05-01 13:14 | 39.07071 | -71.56213 | 33987 ft | 459 kts | 189° |
| 2026-05-01 13:14 | 39.00671 | -71.55813 | 33993 ft | 460 kts | 189° |
| 2026-05-01 13:15 | 38.94265 | -71.55417 | 33995 ft | 462 kts | 190° |
| 2026-05-01 13:15 | 38.87849 | -71.55018 | 33996 ft | 462 kts | 190° |
| 2026-05-01 13:16 | 38.81467 | -71.54639 | 34001 ft | 462 kts | 190° |
| 2026-05-01 13:16 | 38.75035 | -71.54249 | 33965 ft | 463 kts | 191° |
| 2026-05-01 13:17 | 38.62132 | -71.53459 | 33995 ft | 464 kts | 191° |
| 2026-05-01 13:18 | 38.52571 | -71.53490 | 33964 ft | 445 kts | 201° |
| 2026-05-01 13:18 | 38.46416 | -71.54447 | 33977 ft | 446 kts | 201° |
| 2026-05-01 13:19 | 38.40250 | -71.55385 | 33991 ft | 447 kts | 200° |
| 2026-05-01 13:20 | 38.31033 | -71.56787 | 33959 ft | 447 kts | 201° |
| 2026-05-01 13:20 | 38.24856 | -71.57740 | 33974 ft | 447 kts | 201° |
| 2026-05-01 13:21 | 38.15562 | -71.59134 | 34001 ft | 449 kts | 200° |
| 2026-05-01 13:21 | 38.09367 | -71.60070 | 33968 ft | 448 kts | 200° |
| 2026-05-01 13:22 | 38.03172 | -71.61018 | 33994 ft | 449 kts | 200° |
| 2026-05-01 13:22 | 37.96967 | -71.61953 | 34006 ft | 449 kts | 200° |
| 2026-05-01 13:23 | 37.90767 | -71.62879 | 34011 ft | 449 kts | 200° |
| 2026-05-01 13:23 | 37.84564 | -71.63809 | 33970 ft | 448 kts | 200° |
| 2026-05-01 13:24 | 37.78415 | -71.64741 | 33991 ft | 448 kts | 200° |
| 2026-05-01 13:25 | 37.69120 | -71.66141 | 34008 ft | 449 kts | 200° |
| 2026-05-01 13:25 | 37.62925 | -71.67069 | 33986 ft | 448 kts | 201° |
| 2026-05-01 13:26 | 37.56730 | -71.67997 | 34005 ft | 448 kts | 201° |
| 2026-05-01 13:26 | 37.50533 | -71.68917 | 34017 ft | 448 kts | 201° |
| 2026-05-01 13:27 | 37.45385 | -71.69681 | 34014 ft | 448 kts | 201° |
| 2026-05-01 13:27 | 37.35900 | -71.70251 | 33988 ft | 472 kts | 189° |
| 2026-05-01 13:28 | 37.26076 | -71.69208 | 34003 ft | 472 kts | 189° |
| 2026-05-01 13:29 | 37.12969 | -71.67839 | 33995 ft | 473 kts | 189° |
| 2026-05-01 13:31 | 36.93291 | -71.65812 | 34022 ft | 474 kts | 189° |
| 2026-05-01 13:32 | 36.76851 | -71.64112 | 34028 ft | 474 kts | 189° |
| 2026-05-01 13:33 | 36.60435 | -71.62440 | 33994 ft | 475 kts | 189° |
| 2026-05-01 13:34 | 36.47247 | -71.61081 | 33988 ft | 476 kts | 189° |
| 2026-05-01 13:35 | 36.37337 | -71.60082 | 34003 ft | 477 kts | 189° |
| 2026-05-01 13:36 | 36.27406 | -71.59062 | 34009 ft | 477 kts | 189° |
| 2026-05-01 13:36 | 36.17442 | -71.58055 | 34011 ft | 480 kts | 189° |
| 2026-05-01 13:37 | 36.10827 | -71.57393 | 34014 ft | 480 kts | 189° |
| 2026-05-01 13:37 | 36.04163 | -71.56727 | 34024 ft | 481 kts | 189° |
| 2026-05-01 13:38 | 35.94164 | -71.55723 | 33990 ft | 481 kts | 188° |
| 2026-05-01 13:39 | 35.87482 | -71.55039 | 34003 ft | 481 kts | 188° |
| 2026-05-01 13:39 | 35.80812 | -71.54359 | 34013 ft | 481 kts | 188° |
| 2026-05-01 13:40 | 35.74148 | -71.53704 | 33994 ft | 481 kts | 188° |
| 2026-05-01 13:40 | 35.67520 | -71.53050 | 34010 ft | 481 kts | 188° |
| 2026-05-01 13:41 | 35.60768 | -71.51906 | 34017 ft | 495 kts | 180° |
| 2026-05-01 13:41 | 35.54067 | -71.50168 | 33979 ft | 495 kts | 180° |
| 2026-05-01 13:42 | 35.47322 | -71.48427 | 33996 ft | 495 kts | 180° |
| 2026-05-01 13:42 | 35.40567 | -71.46699 | 34007 ft | 495 kts | 180° |
| 2026-05-01 13:43 | 35.33819 | -71.44976 | 34018 ft | 496 kts | 180° |
| 2026-05-01 13:43 | 35.27066 | -71.43263 | 33977 ft | 495 kts | 180° |
| 2026-05-01 13:44 | 35.20314 | -71.41555 | 33990 ft | 496 kts | 180° |
| 2026-05-01 13:44 | 35.13554 | -71.39830 | 34001 ft | 496 kts | 180° |
| 2026-05-01 13:45 | 35.06840 | -71.38116 | 34008 ft | 496 kts | 180° |
| 2026-05-01 13:45 | 35.00068 | -71.36398 | 33983 ft | 496 kts | 179° |
| 2026-05-01 13:46 | 34.93294 | -71.34689 | 33989 ft | 497 kts | 179° |
| 2026-05-01 13:46 | 34.86514 | -71.32979 | 33999 ft | 497 kts | 179° |
| 2026-05-01 13:47 | 34.79734 | -71.31272 | 34006 ft | 498 kts | 180° |
| 2026-05-01 13:47 | 34.72952 | -71.29573 | 34003 ft | 498 kts | 179° |
| 2026-05-01 13:48 | 34.66207 | -71.27868 | 34021 ft | 498 kts | 179° |
| 2026-05-01 13:48 | 34.59418 | -71.26156 | 34021 ft | 498 kts | 179° |
| 2026-05-01 13:49 | 34.52618 | -71.24465 | 34023 ft | 498 kts | 179° |
| 2026-05-01 13:49 | 34.45834 | -71.22778 | 34029 ft | 498 kts | 179° |
| 2026-05-01 13:50 | 34.39045 | -71.21078 | 34021 ft | 498 kts | 179° |
| 2026-05-01 13:50 | 34.32262 | -71.19383 | 34023 ft | 498 kts | 179° |
| 2026-05-01 13:51 | 34.25477 | -71.17697 | 33988 ft | 498 kts | 179° |
| 2026-05-01 13:51 | 34.18692 | -71.16013 | 34009 ft | 497 kts | 179° |
| 2026-05-01 13:52 | 34.11910 | -71.14340 | 34015 ft | 497 kts | 179° |
| 2026-05-01 13:52 | 34.05130 | -71.12662 | 34020 ft | 497 kts | 179° |
| 2026-05-01 13:53 | 33.98354 | -71.10982 | 33980 ft | 497 kts | 178° |
| 2026-05-01 13:53 | 33.88238 | -71.08500 | 34013 ft | 496 kts | 178° |
| 2026-05-01 13:54 | 33.81470 | -71.06840 | 34023 ft | 496 kts | 178° |
| 2026-05-01 13:54 | 33.74707 | -71.05175 | 33981 ft | 496 kts | 178° |
| 2026-05-01 13:55 | 33.67948 | -71.03513 | 34001 ft | 496 kts | 178° |
| 2026-05-01 13:55 | 33.61191 | -71.01854 | 34010 ft | 495 kts | 178° |
| 2026-05-01 13:56 | 33.54436 | -71.00196 | 34018 ft | 495 kts | 178° |
| 2026-05-01 13:56 | 33.47686 | -70.98552 | 33976 ft | 495 kts | 178° |
| 2026-05-01 13:57 | 33.42077 | -70.97188 | 33999 ft | 495 kts | 178° |
| 2026-05-01 13:57 | 33.34193 | -70.95274 | 34013 ft | 495 kts | 178° |
| 2026-05-01 13:58 | 33.27445 | -70.93639 | 34018 ft | 494 kts | 178° |
| 2026-05-01 13:58 | 33.20697 | -70.92009 | 33989 ft | 494 kts | 178° |
| 2026-05-01 13:59 | 33.13997 | -70.90391 | 34001 ft | 495 kts | 178° |
| 2026-05-01 13:59 | 33.07251 | -70.88753 | 34009 ft | 495 kts | 177° |
| 2026-05-01 14:00 | 33.00505 | -70.87113 | 34004 ft | 495 kts | 177° |
| 2026-05-01 14:00 | 32.93755 | -70.85486 | 33990 ft | 494 kts | 177° |
| 2026-05-01 14:01 | 32.87010 | -70.83869 | 34010 ft | 494 kts | 177° |
| 2026-05-01 14:01 | 32.80267 | -70.82251 | 34011 ft | 494 kts | 177° |
| 2026-05-01 14:02 | 32.73522 | -70.80635 | 34012 ft | 494 kts | 177° |
| 2026-05-01 14:02 | 32.66783 | -70.79022 | 33979 ft | 494 kts | 177° |
| 2026-05-01 14:03 | 32.60043 | -70.77407 | 33995 ft | 494 kts | 177° |
| 2026-05-01 14:03 | 32.53353 | -70.75796 | 34004 ft | 494 kts | 177° |
| 2026-05-01 14:04 | 32.46618 | -70.74185 | 34004 ft | 494 kts | 177° |
| 2026-05-01 14:04 | 32.40972 | -70.72847 | 33987 ft | 493 kts | 177° |
| 2026-05-01 14:05 | 32.33147 | -70.70998 | 33995 ft | 493 kts | 177° |
| 2026-05-01 14:05 | 32.26414 | -70.69409 | 33998 ft | 493 kts | 177° |
| 2026-05-01 14:06 | 32.19678 | -70.67815 | 34003 ft | 493 kts | 177° |
| 2026-05-01 14:06 | 32.12947 | -70.66217 | 33964 ft | 493 kts | 176° |
| 2026-05-01 14:07 | 32.06220 | -70.64617 | 33981 ft | 493 kts | 176° |
| 2026-05-01 14:08 | 31.96167 | -70.62246 | 33995 ft | 493 kts | 177° |
| 2026-05-01 14:08 | 31.89443 | -70.60666 | 34002 ft | 493 kts | 177° |
| 2026-05-01 14:09 | 31.82716 | -70.59091 | 33997 ft | 493 kts | 177° |
| 2026-05-01 14:09 | 31.75987 | -70.57511 | 33999 ft | 493 kts | 177° |
| 2026-05-01 14:10 | 31.69267 | -70.55937 | 33992 ft | 493 kts | 177° |
| 2026-05-01 14:10 | 31.62541 | -70.54359 | 33969 ft | 493 kts | 176° |
| 2026-05-01 14:11 | 31.55816 | -70.52788 | 33981 ft | 492 kts | 176° |
| 2026-05-01 14:11 | 31.45736 | -70.50447 | 33996 ft | 492 kts | 176° |
| 2026-05-01 14:12 | 31.39022 | -70.48883 | 33996 ft | 492 kts | 176° |
| 2026-05-01 14:12 | 31.32313 | -70.47321 | 33976 ft | 491 kts | 176° |
| 2026-05-01 14:13 | 31.26737 | -70.46025 | 33983 ft | 491 kts | 176° |
| 2026-05-01 14:13 | 31.18938 | -70.44213 | 33992 ft | 491 kts | 176° |
| 2026-05-01 14:14 | 31.12232 | -70.42662 | 33994 ft | 491 kts | 176° |
| 2026-05-01 14:14 | 31.05527 | -70.41112 | 33968 ft | 491 kts | 176° |
| 2026-05-01 14:15 | 30.98818 | -70.39564 | 33979 ft | 491 kts | 176° |
| 2026-05-01 14:15 | 30.92113 | -70.38021 | 33990 ft | 491 kts | 176° |
| 2026-05-01 14:16 | 30.85443 | -70.36480 | 33999 ft | 491 kts | 176° |
| 2026-05-01 14:16 | 30.78727 | -70.34948 | 33976 ft | 491 kts | 176° |
| 2026-05-01 14:17 | 30.72020 | -70.33415 | 33985 ft | 491 kts | 176° |
| 2026-05-01 14:17 | 30.65308 | -70.31877 | 33993 ft | 491 kts | 176° |
| 2026-05-01 14:18 | 30.58596 | -70.30340 | 33999 ft | 491 kts | 176° |
| 2026-05-01 14:18 | 30.53015 | -70.29063 | 33964 ft | 491 kts | 176° |
| 2026-05-01 14:19 | 30.46301 | -70.27525 | 33981 ft | 491 kts | 176° |
| 2026-05-01 14:19 | 30.38497 | -70.25750 | 33999 ft | 492 kts | 176° |
| 2026-05-01 14:20 | 30.28424 | -70.23468 | 34008 ft | 492 kts | 176° |
| 2026-05-01 14:21 | 30.22807 | -70.22199 | 33993 ft | 492 kts | 176° |
| 2026-05-01 14:21 | 30.16124 | -70.20674 | 34012 ft | 492 kts | 176° |
| 2026-05-01 14:22 | 30.06057 | -70.18384 | 34014 ft | 491 kts | 176° |
| 2026-05-01 14:22 | 29.99347 | -70.16868 | 34017 ft | 490 kts | 176° |
| 2026-05-01 14:23 | 29.92701 | -70.15372 | 34006 ft | 489 kts | 176° |
| 2026-05-01 14:23 | 29.86021 | -70.13860 | 34019 ft | 489 kts | 176° |
| 2026-05-01 14:24 | 29.79347 | -70.12362 | 34021 ft | 488 kts | 176° |
| 2026-05-01 14:24 | 29.72688 | -70.10870 | 34018 ft | 488 kts | 176° |
| 2026-05-01 14:25 | 29.66024 | -70.09375 | 34004 ft | 487 kts | 176° |
| 2026-05-01 14:25 | 29.59361 | -70.07887 | 34020 ft | 487 kts | 176° |
| 2026-05-01 14:26 | 29.49370 | -70.05647 | 34027 ft | 487 kts | 176° |
| 2026-05-01 14:27 | 29.42714 | -70.04156 | 34023 ft | 487 kts | 176° |
| 2026-05-01 14:27 | 29.36057 | -70.02674 | 34011 ft | 487 kts | 176° |
| 2026-05-01 14:28 | 29.26055 | -70.00452 | 34023 ft | 488 kts | 176° |
| 2026-05-01 14:28 | 29.19430 | -69.98983 | 34029 ft | 488 kts | 176° |
| 2026-05-01 14:29 | 29.12771 | -69.97492 | 34030 ft | 488 kts | 176° |
| 2026-05-01 14:30 | 28.99440 | -69.94548 | 34034 ft | 487 kts | 176° |
| 2026-05-01 14:31 | 28.89449 | -69.92334 | 34036 ft | 487 kts | 176° |
| 2026-05-01 14:31 | 28.82787 | -69.90859 | 34013 ft | 487 kts | 175° |
| 2026-05-01 14:32 | 28.76115 | -69.89397 | 34022 ft | 487 kts | 175° |
| 2026-05-01 14:32 | 28.69487 | -69.87939 | 34030 ft | 488 kts | 175° |
| 2026-05-01 14:33 | 28.62821 | -69.86470 | 34035 ft | 488 kts | 175° |
| 2026-05-01 14:33 | 28.56147 | -69.84997 | 34009 ft | 489 kts | 175° |
| 2026-05-01 14:34 | 28.49474 | -69.83525 | 34036 ft | 488 kts | 174° |
| 2026-05-01 14:34 | 28.42795 | -69.82071 | 34047 ft | 487 kts | 174° |
| 2026-05-01 14:35 | 28.36130 | -69.80625 | 34058 ft | 487 kts | 174° |
| 2026-05-01 14:35 | 28.29525 | -69.79175 | 34056 ft | 487 kts | 174° |
| 2026-05-01 14:36 | 28.22859 | -69.77720 | 34043 ft | 487 kts | 174° |
| 2026-05-01 14:36 | 28.16213 | -69.76264 | 34049 ft | 487 kts | 174° |
| 2026-05-01 14:37 | 28.09561 | -69.74818 | 34051 ft | 486 kts | 174° |
| 2026-05-01 14:37 | 28.02917 | -69.73375 | 34052 ft | 486 kts | 174° |
| 2026-05-01 14:38 | 27.96277 | -69.71942 | 34037 ft | 486 kts | 174° |
| 2026-05-01 14:38 | 27.89631 | -69.70502 | 34052 ft | 486 kts | 174° |
| 2026-05-01 14:39 | 27.82988 | -69.69063 | 34058 ft | 486 kts | 174° |
| 2026-05-01 14:39 | 27.76392 | -69.67639 | 34055 ft | 485 kts | 174° |
| 2026-05-01 14:40 | 27.69728 | -69.66196 | 34044 ft | 485 kts | 174° |
| 2026-05-01 14:40 | 27.63103 | -69.64758 | 34059 ft | 484 kts | 174° |
| 2026-05-01 14:41 | 27.56532 | -69.63349 | 34066 ft | 483 kts | 174° |
| 2026-05-01 14:41 | 27.49925 | -69.61940 | 34067 ft | 483 kts | 174° |
| 2026-05-01 14:42 | 27.43333 | -69.60517 | 34066 ft | 482 kts | 174° |
| 2026-05-01 14:42 | 27.36740 | -69.59094 | 34063 ft | 482 kts | 174° |
| 2026-05-01 14:43 | 27.30154 | -69.57678 | 34065 ft | 481 kts | 174° |
| 2026-05-01 14:43 | 27.23574 | -69.56266 | 34065 ft | 481 kts | 174° |
| 2026-05-01 14:44 | 27.16989 | -69.54863 | 34070 ft | 481 kts | 174° |
| 2026-05-01 14:44 | 27.07166 | -69.52781 | 34057 ft | 480 kts | 174° |
| 2026-05-01 14:45 | 26.97322 | -69.50674 | 34075 ft | 479 kts | 173° |
| 2026-05-01 14:46 | 26.90776 | -69.49274 | 34068 ft | 478 kts | 173° |
| 2026-05-01 14:46 | 26.80997 | -69.47206 | 34057 ft | 478 kts | 173° |
| 2026-05-01 14:47 | 26.74458 | -69.45816 | 34064 ft | 478 kts | 173° |
| 2026-05-01 14:48 | 26.64642 | -69.43727 | 34060 ft | 478 kts | 173° |
| 2026-05-01 14:48 | 26.54884 | -69.41675 | 34073 ft | 478 kts | 173° |
| 2026-05-01 14:49 | 26.41806 | -69.38915 | 34064 ft | 478 kts | 173° |
| 2026-05-01 14:50 | 26.28757 | -69.36158 | 34069 ft | 478 kts | 173° |
| 2026-05-01 14:51 | 26.18951 | -69.34100 | 34072 ft | 478 kts | 173° |
| 2026-05-01 14:52 | 26.09154 | -69.32043 | 34075 ft | 478 kts | 173° |
| 2026-05-01 14:53 | 25.99347 | -69.29987 | 34086 ft | 478 kts | 173° |
| 2026-05-01 14:53 | 25.92809 | -69.28626 | 34061 ft | 478 kts | 173° |
| 2026-05-01 14:54 | 25.86305 | -69.27274 | 34073 ft | 478 kts | 173° |
| 2026-05-01 14:54 | 25.79760 | -69.25899 | 34084 ft | 478 kts | 173° |
| 2026-05-01 14:55 | 25.73222 | -69.24532 | 34085 ft | 478 kts | 173° |
| 2026-05-01 14:55 | 25.66674 | -69.23176 | 34086 ft | 478 kts | 173° |
| 2026-05-01 14:56 | 25.60144 | -69.21817 | 34074 ft | 478 kts | 173° |
| 2026-05-01 14:56 | 25.53639 | -69.20460 | 34085 ft | 478 kts | 173° |
| 2026-05-01 14:57 | 25.47090 | -69.19099 | 34086 ft | 478 kts | 172° |
| 2026-05-01 14:57 | 25.37272 | -69.17070 | 34083 ft | 479 kts | 172° |
| 2026-05-01 14:58 | 25.30705 | -69.15708 | 34081 ft | 479 kts | 172° |
| 2026-05-01 14:58 | 25.24151 | -69.14347 | 34089 ft | 480 kts | 172° |
| 2026-05-01 14:59 | 25.17574 | -69.12985 | 34094 ft | 480 kts | 172° |
| 2026-05-01 14:59 | 25.11002 | -69.11639 | 34095 ft | 480 kts | 172° |
| 2026-05-01 15:00 | 25.01201 | -69.09621 | 34087 ft | 480 kts | 172° |
| 2026-05-01 15:01 | 24.94646 | -69.08161 | 34083 ft | 481 kts | 169° |
| 2026-05-01 15:01 | 24.88120 | -69.06522 | 34083 ft | 481 kts | 169° |
| 2026-05-01 15:02 | 24.81598 | -69.04853 | 34083 ft | 481 kts | 169° |
| 2026-05-01 15:02 | 24.75075 | -69.03239 | 34084 ft | 481 kts | 169° |
| 2026-05-01 15:03 | 24.68534 | -69.01658 | 34082 ft | 481 kts | 169° |
| 2026-05-01 15:03 | 24.62033 | -69.00082 | 34086 ft | 482 kts | 169° |
| 2026-05-01 15:04 | 24.55485 | -68.98486 | 34088 ft | 482 kts | 169° |
| 2026-05-01 15:04 | 24.48934 | -68.96886 | 34088 ft | 482 kts | 169° |
| 2026-05-01 15:05 | 24.42371 | -68.95286 | 34079 ft | 482 kts | 169° |
| 2026-05-01 15:05 | 24.35822 | -68.93684 | 34085 ft | 482 kts | 169° |
| 2026-05-01 15:06 | 24.29278 | -68.92076 | 34097 ft | 482 kts | 169° |
| 2026-05-01 15:06 | 24.22738 | -68.90459 | 34093 ft | 481 kts | 168° |
| 2026-05-01 15:07 | 24.16250 | -68.88861 | 34097 ft | 481 kts | 169° |
| 2026-05-01 15:07 | 24.09713 | -68.87253 | 34079 ft | 481 kts | 168° |
| 2026-05-01 15:08 | 24.03172 | -68.85639 | 34091 ft | 481 kts | 168° |
| 2026-05-01 15:08 | 23.97739 | -68.84309 | 34087 ft | 481 kts | 168° |
| 2026-05-01 15:09 | 23.91211 | -68.82711 | 34089 ft | 481 kts | 168° |
| 2026-05-01 15:09 | 23.84665 | -68.81112 | 34095 ft | 481 kts | 168° |
| 2026-05-01 15:10 | 23.78131 | -68.79519 | 34085 ft | 482 kts | 168° |
| 2026-05-01 15:10 | 23.68301 | -68.77116 | 34095 ft | 482 kts | 168° |
| 2026-05-01 15:11 | 23.58408 | -68.76292 | 34091 ft | 478 kts | 191° |
| 2026-05-01 15:12 | 23.52169 | -68.78618 | 34084 ft | 473 kts | 211° |
| 2026-05-01 15:12 | 23.43747 | -68.84185 | 34067 ft | 473 kts | 213° |
| 2026-05-01 15:14 | 23.29639 | -68.93498 | 34085 ft | 474 kts | 213° |
| 2026-05-01 15:14 | 23.21179 | -68.99107 | 34088 ft | 474 kts | 213° |
| 2026-05-01 15:15 | 23.09933 | -69.06524 | 34091 ft | 475 kts | 213° |
| 2026-05-01 15:16 | 22.98632 | -69.13963 | 34095 ft | 475 kts | 213° |
| 2026-05-01 15:18 | 22.84484 | -69.23273 | 34084 ft | 476 kts | 213° |
| 2026-05-01 15:19 | 22.73149 | -69.30707 | 34088 ft | 476 kts | 212° |
| 2026-05-01 15:19 | 22.64685 | -69.36239 | 34075 ft | 476 kts | 212° |
| 2026-05-01 15:20 | 22.56174 | -69.41804 | 34068 ft | 476 kts | 212° |
| 2026-05-01 15:21 | 22.50498 | -69.45516 | 34066 ft | 477 kts | 212° |
| 2026-05-01 15:21 | 22.44819 | -69.49222 | 34066 ft | 477 kts | 212° |
| 2026-05-01 15:22 | 22.36288 | -69.54781 | 34058 ft | 478 kts | 212° |
| 2026-05-01 15:22 | 22.30586 | -69.58487 | 34064 ft | 478 kts | 212° |
| 2026-05-01 15:23 | 22.24881 | -69.62194 | 34067 ft | 479 kts | 212° |
| 2026-05-01 15:23 | 22.19172 | -69.65905 | 34073 ft | 479 kts | 212° |
| 2026-05-01 15:24 | 22.13464 | -69.69613 | 34074 ft | 479 kts | 212° |
| 2026-05-01 15:24 | 22.07756 | -69.73313 | 34069 ft | 479 kts | 212° |
| 2026-05-01 15:25 | 22.02041 | -69.77013 | 34069 ft | 479 kts | 212° |
| 2026-05-01 15:25 | 21.96351 | -69.80693 | 34072 ft | 480 kts | 212° |
| 2026-05-01 15:26 | 21.90626 | -69.84390 | 34073 ft | 479 kts | 212° |
| 2026-05-01 15:26 | 21.84903 | -69.88081 | 34070 ft | 479 kts | 212° |
| 2026-05-01 15:27 | 21.79181 | -69.91775 | 34066 ft | 479 kts | 212° |
| 2026-05-01 15:28 | 21.70607 | -69.97307 | 34063 ft | 479 kts | 212° |
| 2026-05-01 15:28 | 21.64890 | -70.00986 | 34064 ft | 479 kts | 211° |
| 2026-05-01 15:29 | 21.56311 | -70.06503 | 34067 ft | 479 kts | 211° |
| 2026-05-01 15:30 | 21.44914 | -70.13809 | 33076 ft | 479 kts | 211° |
| 2026-05-01 15:31 | 21.33406 | -70.21183 | 31202 ft | 484 kts | 211° |
| 2026-05-01 15:31 | 21.27607 | -70.24894 | 30313 ft | 486 kts | 211° |
| 2026-05-01 15:32 | 21.21775 | -70.28625 | 29322 ft | 490 kts | 211° |
| 2026-05-01 15:32 | 21.15908 | -70.32368 | 28304 ft | 492 kts | 211° |
| 2026-05-01 15:33 | 21.07062 | -70.38008 | 26809 ft | 495 kts | 211° |
| 2026-05-01 15:34 | 20.98235 | -70.43632 | 25392 ft | 491 kts | 211° |